createdAt,value
2018-10-17T00:00:54.957Z,99.90
2018-10-17T00:03:26.328Z,99.90
2018-10-17T00:05:57.621Z,99.90
2018-10-17T00:08:28.768Z,99.90
2018-10-17T00:10:59.938Z,99.90
2018-10-17T00:13:30.893Z,99.90
2018-10-17T00:16:01.921Z,99.90
2018-10-17T00:18:32.992Z,99.90
2018-10-17T00:21:04.003Z,99.90
2018-10-17T00:23:35.147Z,99.90
2018-10-17T00:26:06.417Z,99.90
2018-10-17T00:28:37.396Z,99.90
2018-10-17T00:31:08.838Z,99.90
2018-10-17T00:33:39.824Z,99.90
2018-10-17T00:36:10.860Z,99.90
2018-10-17T00:38:41.940Z,99.90
2018-10-17T00:41:12.976Z,99.90
2018-10-17T00:43:43.980Z,99.90
2018-10-17T00:46:14.964Z,99.90
2018-10-17T00:48:45.966Z,99.90
2018-10-17T00:51:16.962Z,99.90
2018-10-17T00:53:47.919Z,99.90
2018-10-17T00:56:18.951Z,99.90
2018-10-17T00:58:59.888Z,99.90
2018-10-17T01:01:30.894Z,99.90
2018-10-17T01:04:02.108Z,99.90
2018-10-17T01:06:33.971Z,99.90
2018-10-17T01:09:08.918Z,99.90
2018-10-17T01:11:40.297Z,99.90
2018-10-17T01:14:11.399Z,99.90
2018-10-17T01:16:42.440Z,99.90
2018-10-17T01:19:13.390Z,99.90
2018-10-17T01:21:44.442Z,99.90
2018-10-17T01:24:15.425Z,99.90
2018-10-17T01:26:46.588Z,99.90
2018-10-17T01:29:17.680Z,99.90
2018-10-17T01:31:48.653Z,99.90
2018-10-17T01:34:19.540Z,99.90
2018-10-17T01:36:50.485Z,99.90
2018-10-17T01:39:21.401Z,99.90
2018-10-17T01:41:52.797Z,99.90
2018-10-17T01:44:23.732Z,99.90
2018-10-17T01:46:55.059Z,99.90
2018-10-17T01:49:26.284Z,99.90
2018-10-17T01:51:57.571Z,99.90
2018-10-17T01:54:28.648Z,99.90
2018-10-17T01:56:59.726Z,99.90
2018-10-17T01:59:30.780Z,99.90
2018-10-17T02:02:01.663Z,99.90
2018-10-17T02:04:32.589Z,99.90
2018-10-17T02:07:03.553Z,99.90
2018-10-17T02:09:34.917Z,99.90
2018-10-17T02:12:06.083Z,99.90
2018-10-17T02:14:37.174Z,99.90
2018-10-17T02:17:08.266Z,99.90
2018-10-17T02:19:40.235Z,99.90
2018-10-17T02:22:11.268Z,99.90
2018-10-17T02:24:42.228Z,99.90
2018-10-17T02:27:13.298Z,99.90
2018-10-17T02:29:44.319Z,99.90
2018-10-17T02:32:15.290Z,99.90
2018-10-17T02:34:50.931Z,99.90
2018-10-17T02:37:22.223Z,99.90
2018-10-17T02:39:53.226Z,99.90
2018-10-17T02:42:24.300Z,99.90
2018-10-17T02:44:55.336Z,99.90
2018-10-17T02:47:26.371Z,99.90
2018-10-17T02:49:57.452Z,99.90
2018-10-17T02:52:28.708Z,99.90
2018-10-17T02:54:59.965Z,99.90
2018-10-17T02:57:31.521Z,99.90
2018-10-17T03:00:03.226Z,99.90
2018-10-17T03:02:34.548Z,99.90
2018-10-17T03:05:05.798Z,99.90
2018-10-17T03:07:37.007Z,99.90
2018-10-17T03:10:08.204Z,99.90
2018-10-17T03:12:39.319Z,99.90
2018-10-17T03:15:11.064Z,99.90
2018-10-17T03:17:42.159Z,99.90
2018-10-17T03:20:13.268Z,99.90
2018-10-17T03:22:44.357Z,99.90
2018-10-17T03:25:15.563Z,99.90
2018-10-17T03:27:46.873Z,99.90
2018-10-17T03:30:17.971Z,99.90
2018-10-17T03:32:49.149Z,99.90
2018-10-17T03:35:20.315Z,99.90
2018-10-17T03:37:51.325Z,99.90
2018-10-17T03:40:22.437Z,99.90
2018-10-17T03:42:53.717Z,99.90
2018-10-17T03:45:24.709Z,99.90
2018-10-17T03:47:55.915Z,99.90
2018-10-17T03:50:26.893Z,99.90
2018-10-17T03:52:57.918Z,99.90
2018-10-17T03:55:29.090Z,99.90
2018-10-17T03:58:00.255Z,99.90
2018-10-17T04:00:31.420Z,99.90
2018-10-17T04:03:02.518Z,99.90
2018-10-17T04:05:33.889Z,99.90
2018-10-17T04:08:05.342Z,99.90
2018-10-17T04:10:36.825Z,99.90
2018-10-17T04:13:07.925Z,99.90
2018-10-17T04:15:39.010Z,99.90
2018-10-17T04:18:10.148Z,99.90
2018-10-17T04:20:41.366Z,99.90
2018-10-17T04:23:12.395Z,99.90
2018-10-17T04:25:43.607Z,99.90
2018-10-17T04:28:14.686Z,99.90
2018-10-17T04:30:45.817Z,99.90
2018-10-17T04:33:16.930Z,99.90
2018-10-17T04:35:47.978Z,99.90
2018-10-17T04:38:19.275Z,99.90
2018-10-17T04:43:16.155Z,99.90
2018-10-17T04:45:47.255Z,99.90
2018-10-17T04:48:18.475Z,99.90
2018-10-17T04:50:49.575Z,99.90
2018-10-17T04:53:20.638Z,99.90
2018-10-17T04:55:51.635Z,99.90
2018-10-17T04:58:22.740Z,99.90
2018-10-17T05:00:53.836Z,99.90
2018-10-17T05:03:24.828Z,99.90
2018-10-17T05:05:55.813Z,99.90
2018-10-17T05:08:26.884Z,99.90
2018-10-17T05:10:57.951Z,99.90
2018-10-17T05:13:29.034Z,99.90
2018-10-17T05:16:00.126Z,99.90
2018-10-17T05:18:31.088Z,99.90
2018-10-17T05:21:02.139Z,99.90
2018-10-17T05:23:33.120Z,99.90
2018-10-17T05:26:04.338Z,99.90
2018-10-17T05:28:35.361Z,99.90
2018-10-17T05:31:06.905Z,99.90
2018-10-17T05:33:38.076Z,99.90
2018-10-17T05:36:09.073Z,99.90
2018-10-17T05:38:40.305Z,99.90
2018-10-17T05:41:11.458Z,99.90
2018-10-17T05:43:42.659Z,99.90
2018-10-17T05:46:13.663Z,99.90
2018-10-17T05:48:44.676Z,99.90
2018-10-17T05:51:15.592Z,99.90
2018-10-17T05:53:46.665Z,99.90
2018-10-17T05:56:17.680Z,99.90
2018-10-17T05:58:48.709Z,99.90
2018-10-17T06:01:19.734Z,99.90
2018-10-17T06:03:50.854Z,99.90
2018-10-17T06:06:21.934Z,99.90
2018-10-17T06:08:52.946Z,99.90
2018-10-17T06:11:23.981Z,99.90
2018-10-17T06:13:55.092Z,99.90
2018-10-17T06:16:26.201Z,99.90
2018-10-17T06:19:14.867Z,99.90
2018-10-17T06:26:47.886Z,99.90
2018-10-17T06:29:18.883Z,99.90
2018-10-17T06:31:49.846Z,99.90
2018-10-17T06:34:20.897Z,99.90
2018-10-17T06:36:51.903Z,99.90
2018-10-17T06:39:22.944Z,99.90
2018-10-17T06:41:53.888Z,99.90
2018-10-17T06:44:24.960Z,99.90
2018-10-17T06:46:56.052Z,99.90
2018-10-17T06:49:27.227Z,99.90
2018-10-17T06:51:58.446Z,99.90
2018-10-17T06:54:29.768Z,99.90
2018-10-17T06:57:00.903Z,99.90
2018-10-17T06:59:32.037Z,99.90
2018-10-17T07:02:03.186Z,99.90
2018-10-17T07:04:34.303Z,99.90
2018-10-17T07:07:05.439Z,99.90
2018-10-17T07:09:36.609Z,99.90
2018-10-17T07:12:07.949Z,99.90
2018-10-17T07:14:39.180Z,99.90
2018-10-17T07:17:10.510Z,99.90
2018-10-17T07:19:41.623Z,99.90
2018-10-17T07:22:12.760Z,99.90
2018-10-17T07:24:43.934Z,99.90
2018-10-17T07:27:15.389Z,99.90
2018-10-17T07:29:46.542Z,99.90
2018-10-17T07:32:17.595Z,99.90
2018-10-17T07:34:48.632Z,99.90
2018-10-17T07:37:19.604Z,99.90
2018-10-17T07:39:50.808Z,99.90
2018-10-17T07:42:21.867Z,99.90
2018-10-17T07:44:53.083Z,99.90
2018-10-17T07:47:24.116Z,99.90
2018-10-17T07:49:55.091Z,99.90
2018-10-17T07:52:26.106Z,99.90
2018-10-17T07:54:57.131Z,99.90
2018-10-17T07:57:28.200Z,99.90
2018-10-17T07:59:59.376Z,99.90
2018-10-17T08:02:30.465Z,99.90
2018-10-17T08:05:01.561Z,99.90
2018-10-17T08:07:32.602Z,99.90
2018-10-17T08:10:03.660Z,99.90
2018-10-17T08:12:34.756Z,99.90
2018-10-17T08:15:05.958Z,99.90
2018-10-17T08:17:37.085Z,99.90
2018-10-17T08:20:09.655Z,99.90
2018-10-17T08:22:41.033Z,99.90
2018-10-17T08:25:13.352Z,99.90
2018-10-17T08:27:44.812Z,99.90
2018-10-17T08:30:16.033Z,99.90
2018-10-17T08:32:47.281Z,99.90
2018-10-17T08:35:18.373Z,99.90
2018-10-17T08:37:50.071Z,99.90
2018-10-17T08:40:20.868Z,99.90
2018-10-17T08:42:51.974Z,99.90
2018-10-17T08:45:23.084Z,99.90
2018-10-17T08:47:54.165Z,99.90
2018-10-17T08:50:25.208Z,99.90
2018-10-17T08:52:56.269Z,99.90
2018-10-17T08:55:27.461Z,99.90
2018-10-17T08:57:58.573Z,99.90
2018-10-17T09:00:29.641Z,99.90
2018-10-17T09:03:00.687Z,99.90
2018-10-17T09:05:31.661Z,99.90
2018-10-17T09:08:02.755Z,99.90
2018-10-17T09:10:33.922Z,99.90
2018-10-17T09:13:05.039Z,99.90
2018-10-17T09:15:38.382Z,99.90
2018-10-17T09:18:07.173Z,99.90
2018-10-17T09:20:38.550Z,99.90
2018-10-17T09:23:09.374Z,99.90
2018-10-17T09:25:40.501Z,99.90
2018-10-17T09:28:11.775Z,99.90
2018-10-17T09:30:42.872Z,99.90
2018-10-17T09:33:13.873Z,99.90
2018-10-17T09:35:45.065Z,99.90
2018-10-17T09:38:16.152Z,99.90
2018-10-17T09:40:47.146Z,99.90
2018-10-17T09:43:18.199Z,99.90
2018-10-17T09:45:49.389Z,99.90
2018-10-17T09:48:20.728Z,99.90
2018-10-17T09:50:51.735Z,99.90
2018-10-17T09:53:23.021Z,99.90
2018-10-17T09:55:53.982Z,99.90
2018-10-17T09:58:25.072Z,99.90
2018-10-17T10:01:00.673Z,99.90
2018-10-17T10:03:31.763Z,99.90
2018-10-17T10:06:02.889Z,99.90
2018-10-17T10:08:34.026Z,99.90
2018-10-17T10:11:05.173Z,99.90
2018-10-17T10:13:36.396Z,99.90
2018-10-17T10:16:07.593Z,99.90
2018-10-17T10:18:38.711Z,99.90
2018-10-17T10:21:09.983Z,99.90
2018-10-17T10:23:41.177Z,99.90
2018-10-17T10:26:12.287Z,99.90
2018-10-17T10:28:43.429Z,99.90
2018-10-17T10:31:14.623Z,99.90
2018-10-17T10:33:45.657Z,99.90
2018-10-17T10:36:16.770Z,99.90
2018-10-17T10:38:47.811Z,99.90
2018-10-17T10:41:18.933Z,99.90
2018-10-17T10:43:50.158Z,99.90
2018-10-17T10:46:21.268Z,99.90
2018-10-17T10:48:52.521Z,99.90
2018-10-17T10:51:23.726Z,99.90
2018-10-17T10:53:54.947Z,99.90
2018-10-17T10:56:26.487Z,99.90
2018-10-17T10:58:57.632Z,99.90
2018-10-17T11:01:28.955Z,99.90
2018-10-17T11:04:00.135Z,99.90
2018-10-17T11:06:31.182Z,99.90
2018-10-17T11:09:02.149Z,99.90
2018-10-17T11:11:33.287Z,99.90
2018-10-17T11:14:04.489Z,99.90
2018-10-17T11:16:35.534Z,99.90
2018-10-17T11:19:06.628Z,99.90
2018-10-17T11:21:37.684Z,99.90
2018-10-17T11:24:08.704Z,99.90
2018-10-17T11:26:39.749Z,99.90
2018-10-17T11:29:10.878Z,99.90
2018-10-17T11:31:42.151Z,99.90
2018-10-17T11:34:13.174Z,99.90
2018-10-17T11:36:44.480Z,99.90
2018-10-17T11:39:15.546Z,99.90
2018-10-17T11:41:46.628Z,99.90
2018-10-17T11:44:17.767Z,99.90
2018-10-17T11:46:48.767Z,99.90
2018-10-17T11:49:19.857Z,99.90
2018-10-17T11:51:51.005Z,99.90
2018-10-17T11:54:22.151Z,99.90
2018-10-17T11:56:53.387Z,99.90
2018-10-17T11:59:24.613Z,99.90
2018-10-17T12:01:55.949Z,99.90
2018-10-17T12:04:27.398Z,99.90
2018-10-17T12:06:58.437Z,99.90
2018-10-17T12:09:29.556Z,99.90
2018-10-17T12:12:00.735Z,99.90
2018-10-17T12:14:31.827Z,99.90
2018-10-17T12:17:02.997Z,99.90
2018-10-17T12:19:33.977Z,99.90
2018-10-17T12:22:04.947Z,99.90
2018-10-17T12:24:35.973Z,99.90
2018-10-17T12:27:08.060Z,99.90
2018-10-17T12:29:39.323Z,99.90
2018-10-17T12:32:10.557Z,99.90
2018-10-17T12:34:41.588Z,99.90
2018-10-17T12:37:12.520Z,99.90
2018-10-17T16:28:52.251Z,99.90
2018-10-17T16:31:23.636Z,99.90
2018-10-17T16:33:55.819Z,99.90
2018-10-17T16:36:27.150Z,99.90
2018-10-17T16:38:58.654Z,99.90
2018-10-17T16:41:46.376Z,99.90
2018-10-17T16:44:17.598Z,99.90
2018-10-17T16:46:49.015Z,99.90
2018-10-17T16:49:20.413Z,99.90
2018-10-17T16:51:52.652Z,99.90
2018-10-17T16:54:23.863Z,99.90
2018-10-17T16:56:55.236Z,99.90
2018-10-17T16:59:26.898Z,99.90
2018-10-17T17:01:58.358Z,99.90
2018-10-17T17:04:29.815Z,99.90
2018-10-17T17:07:01.372Z,99.90
2018-10-17T17:09:32.983Z,99.90
2018-10-17T17:12:04.550Z,99.90
2018-10-17T17:14:35.854Z,99.90
2018-10-17T17:17:07.216Z,99.90
2018-10-17T17:19:38.628Z,99.90
2018-10-17T17:22:10.358Z,99.90
2018-10-17T17:24:42.143Z,99.90
2018-10-17T17:27:13.738Z,99.90
2018-10-17T17:29:45.252Z,99.90
2018-10-17T17:32:16.628Z,99.90
2018-10-17T17:34:48.001Z,99.90
2018-10-17T17:37:19.299Z,99.90
2018-10-17T17:39:50.776Z,97.30
2018-10-17T17:42:22.182Z,97.50
2018-10-17T17:44:53.295Z,93.00
2018-10-17T17:59:37.262Z,95.20
2018-10-17T18:02:08.808Z,96.60
2018-10-17T18:04:39.801Z,98.10
2018-10-17T18:07:11.283Z,95.80
2018-10-17T18:09:42.769Z,96.90
2018-10-17T18:12:14.161Z,95.00
2018-10-17T18:14:45.301Z,93.60
2018-10-17T18:17:16.276Z,93.70
2018-10-17T18:19:47.460Z,95.80
2018-10-17T18:22:18.473Z,93.50
2018-10-17T18:24:50.012Z,93.40
2018-10-17T18:27:21.211Z,94.20
2018-10-17T18:29:52.134Z,93.80
2018-10-17T18:32:23.224Z,94.90
2018-10-17T18:44:02.835Z,97.00
2018-10-17T18:46:33.799Z,97.60
2018-10-17T18:49:05.319Z,99.90
2018-10-17T18:51:36.546Z,99.90
2018-10-17T18:54:07.951Z,99.90
2018-10-17T18:56:39.035Z,99.90
2018-10-17T18:59:10.964Z,99.90
2018-10-17T19:01:42.038Z,99.90
2018-10-17T19:04:13.507Z,99.90
2018-10-17T19:06:44.574Z,99.90
2018-10-17T19:09:16.312Z,99.90
2018-10-17T19:11:47.921Z,99.90
2018-10-17T19:14:19.157Z,99.90
2018-10-17T19:16:50.500Z,99.90
2018-10-17T19:19:21.462Z,99.90
2018-10-17T19:21:52.598Z,99.90
2018-10-17T19:24:23.899Z,99.90
2018-10-17T19:26:55.165Z,99.90
2018-10-17T19:29:26.423Z,99.90
2018-10-17T19:31:57.688Z,99.90
2018-10-17T19:34:29.083Z,99.90
2018-10-17T19:37:00.521Z,99.90
2018-10-17T19:39:31.696Z,99.90
2018-10-17T19:42:02.797Z,99.90
2018-10-17T19:44:33.891Z,99.90
2018-10-17T19:47:05.724Z,99.90
2018-10-17T19:49:36.755Z,99.90
2018-10-17T19:52:07.968Z,99.90
2018-10-17T19:54:39.412Z,99.90
2018-10-17T19:57:10.522Z,99.90
2018-10-17T19:59:41.903Z,99.90
2018-10-17T20:08:12.305Z,99.90
2018-10-17T20:10:43.459Z,99.90
2018-10-17T20:13:14.713Z,99.90
2018-10-17T20:15:46.374Z,99.90
2018-10-17T20:18:17.626Z,99.90
2018-10-17T20:20:49.167Z,99.90
2018-10-17T20:23:20.977Z,99.90
2018-10-17T20:25:52.258Z,99.90
2018-10-17T20:28:23.719Z,99.90
2018-10-17T20:30:56.069Z,99.90
2018-10-17T20:45:39.492Z,99.90
2018-10-17T20:48:10.793Z,99.90
2018-10-17T20:50:42.492Z,99.90
2018-10-17T20:53:13.453Z,99.90
2018-10-17T20:55:44.834Z,99.90
2018-10-17T20:58:19.181Z,99.90
2018-10-17T21:00:50.107Z,99.90
2018-10-17T21:03:21.315Z,99.90
2018-10-17T21:05:52.345Z,99.90
2018-10-17T21:08:23.636Z,99.90
2018-10-17T21:10:54.974Z,99.90
2018-10-17T21:13:26.361Z,99.90
2018-10-17T21:15:57.440Z,99.90
2018-10-17T21:18:28.660Z,99.90
2018-10-17T21:20:59.797Z,99.90
2018-10-17T21:23:30.792Z,99.90
2018-10-17T21:26:01.773Z,99.90
2018-10-17T21:28:32.883Z,99.90
2018-10-17T21:31:04.111Z,99.90
2018-10-17T21:33:35.588Z,99.90
2018-10-17T21:36:06.818Z,99.90
2018-10-17T21:38:38.137Z,99.90
2018-10-17T21:41:09.338Z,99.90
2018-10-17T21:43:41.046Z,99.90
2018-10-17T21:46:12.674Z,99.90
2018-10-17T21:48:44.458Z,99.90
2018-10-17T21:51:16.534Z,99.90
2018-10-17T21:53:48.148Z,99.90
2018-10-17T21:56:19.145Z,99.90
2018-10-17T21:58:50.626Z,99.90
2018-10-17T22:01:22.086Z,99.90
2018-10-17T22:03:53.395Z,99.90
2018-10-17T22:06:24.528Z,99.90
2018-10-17T22:08:55.861Z,99.90
2018-10-17T22:11:26.787Z,99.90
2018-10-17T22:13:57.970Z,99.90
2018-10-17T22:17:33.897Z,99.90
2018-10-17T22:20:04.894Z,99.90
2018-10-17T22:22:36.414Z,99.90
2018-10-17T22:25:07.833Z,99.90
2018-10-17T22:27:38.866Z,99.90
2018-10-17T22:30:10.039Z,99.90
2018-10-17T22:32:41.426Z,99.90
2018-10-17T22:35:12.779Z,99.90
2018-10-17T22:37:43.901Z,99.90
2018-10-17T22:40:15.227Z,99.90
2018-10-17T22:42:46.405Z,99.90
2018-10-17T22:45:17.758Z,99.90
2018-10-17T22:47:48.909Z,99.90
2018-10-17T22:50:19.997Z,99.90
2018-10-17T22:52:51.589Z,99.90
2018-10-17T22:55:22.940Z,99.90
2018-10-17T22:57:54.287Z,99.90
2018-10-17T23:00:25.836Z,99.90
2018-10-17T23:02:57.129Z,99.90
2018-10-17T23:05:38.927Z,99.90
2018-10-17T23:08:10.505Z,99.90
2018-10-17T23:10:41.759Z,99.90
2018-10-17T23:13:13.482Z,99.90
2018-10-17T23:15:44.810Z,99.90
2018-10-17T23:18:16.330Z,99.90
2018-10-17T23:20:47.519Z,99.90
2018-10-17T23:23:19.424Z,99.90
2018-10-17T23:25:51.025Z,99.90
2018-10-17T23:28:22.134Z,99.90
2018-10-17T23:30:53.642Z,99.90
2018-10-17T23:39:29.706Z,99.90
2018-10-17T23:42:01.002Z,99.90
2018-10-17T23:44:32.074Z,99.90
2018-10-17T23:49:56.498Z,99.90
2018-10-17T23:52:27.490Z,99.90
2018-10-17T23:54:58.777Z,99.90
2018-10-17T23:57:30.010Z,99.90
